sensor_id;sensor_type;location;lat;lon;timestamp;temperature;humidity
48515;DHT22;34309;47.260;2.796;2022-08-04T00:00:30;28.80;26.80
48515;DHT22;34309;47.260;2.796;2022-08-04T00:03:23;28.80;26.90
48515;DHT22;34309;47.260;2.796;2022-08-04T00:06:12;28.80;26.90
48515;DHT22;34309;47.260;2.796;2022-08-04T00:08:49;28.80;26.80
48515;DHT22;34309;47.260;2.796;2022-08-04T00:11:22;28.80;26.80
48515;DHT22;34309;47.260;2.796;2022-08-04T00:14:00;28.80;26.60
48515;DHT22;34309;47.260;2.796;2022-08-04T00:16:29;28.80;26.70
48515;DHT22;34309;47.260;2.796;2022-08-04T00:19:02;28.80;26.70
48515;DHT22;34309;47.260;2.796;2022-08-04T00:21:28;28.80;26.70
48515;DHT22;34309;47.260;2.796;2022-08-04T00:23:56;28.80;26.70
48515;DHT22;34309;47.260;2.796;2022-08-04T00:26:23;28.80;26.70
48515;DHT22;34309;47.260;2.796;2022-08-04T00:28:50;28.80;26.70
48515;DHT22;34309;47.260;2.796;2022-08-04T00:31:16;28.80;26.60
48515;DHT22;34309;47.260;2.796;2022-08-04T00:33:44;28.80;26.60
48515;DHT22;34309;47.260;2.796;2022-08-04T00:36:13;28.80;26.60
48515;DHT22;34309;47.260;2.796;2022-08-04T00:38:43;28.80;26.60
48515;DHT22;34309;47.260;2.796;2022-08-04T00:41:21;28.80;26.40
48515;DHT22;34309;47.260;2.796;2022-08-04T00:46:51;28.80;26.50
48515;DHT22;34309;47.260;2.796;2022-08-04T00:53:15;28.80;26.50
48515;DHT22;34309;47.260;2.796;2022-08-04T00:56:04;28.80;26.50
48515;DHT22;34309;47.260;2.796;2022-08-04T01:01:43;28.70;26.50
48515;DHT22;34309;47.260;2.796;2022-08-04T01:04:46;28.70;26.50
48515;DHT22;34309;47.260;2.796;2022-08-04T01:10:25;28.70;26.50
48515;DHT22;34309;47.260;2.796;2022-08-04T01:13:16;28.70;26.50
48515;DHT22;34309;47.260;2.796;2022-08-04T01:15:59;28.70;26.40
48515;DHT22;34309;47.260;2.796;2022-08-04T01:29:16;28.70;26.50
48515;DHT22;34309;47.260;2.796;2022-08-04T01:34:19;28.70;26.50
48515;DHT22;34309;47.260;2.796;2022-08-04T01:36:59;28.70;26.50
48515;DHT22;34309;47.260;2.796;2022-08-04T01:39:35;28.70;26.50
48515;DHT22;34309;47.260;2.796;2022-08-04T01:42:06;28.70;26.50
48515;DHT22;34309;47.260;2.796;2022-08-04T01:44:32;28.70;26.40
48515;DHT22;34309;47.260;2.796;2022-08-04T01:47:00;28.70;26.50
48515;DHT22;34309;47.260;2.796;2022-08-04T01:49:31;28.70;26.50
48515;DHT22;34309;47.260;2.796;2022-08-04T01:51:58;28.70;26.60
48515;DHT22;34309;47.260;2.796;2022-08-04T01:54:24;28.70;26.60
48515;DHT22;34309;47.260;2.796;2022-08-04T01:56:52;28.70;26.50
48515;DHT22;34309;47.260;2.796;2022-08-04T01:59:19;28.70;27.10
48515;DHT22;34309;47.260;2.796;2022-08-04T02:01:46;28.70;26.50
48515;DHT22;34309;47.260;2.796;2022-08-04T02:04:18;28.70;26.60
48515;DHT22;34309;47.260;2.796;2022-08-04T02:09:32;28.70;26.50
48515;DHT22;34309;47.260;2.796;2022-08-04T02:15:12;28.70;26.50
48515;DHT22;34309;47.260;2.796;2022-08-04T02:18:01;28.70;26.70
48515;DHT22;34309;47.260;2.796;2022-08-04T02:20:38;28.70;26.60
48515;DHT22;34309;47.260;2.796;2022-08-04T02:23:09;28.60;26.60
48515;DHT22;34309;47.260;2.796;2022-08-04T02:26:02;28.60;26.50
48515;DHT22;34309;47.260;2.796;2022-08-04T02:28:45;28.60;26.50
48515;DHT22;34309;47.260;2.796;2022-08-04T02:34:08;28.60;26.50
48515;DHT22;34309;47.260;2.796;2022-08-04T02:36:36;28.60;26.50
48515;DHT22;34309;47.260;2.796;2022-08-04T02:39:04;28.60;26.50
48515;DHT22;34309;47.260;2.796;2022-08-04T02:41:32;28.60;26.50
48515;DHT22;34309;47.260;2.796;2022-08-04T02:44:05;28.60;26.50
48515;DHT22;34309;47.260;2.796;2022-08-04T02:46:33;28.60;26.60
48515;DHT22;34309;47.260;2.796;2022-08-04T02:49:05;28.60;26.50
48515;DHT22;34309;47.260;2.796;2022-08-04T02:51:42;28.60;26.60
48515;DHT22;34309;47.260;2.796;2022-08-04T02:54:09;28.60;26.60
48515;DHT22;34309;47.260;2.796;2022-08-04T02:56:37;28.60;26.50
48515;DHT22;34309;47.260;2.796;2022-08-04T02:59:09;28.60;26.60
48515;DHT22;34309;47.260;2.796;2022-08-04T03:01:37;28.60;26.60
48515;DHT22;34309;47.260;2.796;2022-08-04T03:10:17;28.60;26.60
48515;DHT22;34309;47.260;2.796;2022-08-04T03:29:21;28.60;26.60
48515;DHT22;34309;47.260;2.796;2022-08-04T03:34:53;28.60;26.60
48515;DHT22;34309;47.260;2.796;2022-08-04T03:37:52;28.60;26.60
48515;DHT22;34309;47.260;2.796;2022-08-04T03:55:08;28.50;26.60
48515;DHT22;34309;47.260;2.796;2022-08-04T04:17:04;28.50;26.50
48515;DHT22;34309;47.260;2.796;2022-08-04T04:19:59;28.50;26.50
48515;DHT22;34309;47.260;2.796;2022-08-04T04:34:18;28.50;26.80
48515;DHT22;34309;47.260;2.796;2022-08-04T04:36:37;28.50;26.70
48515;DHT22;34309;47.260;2.796;2022-08-04T04:49:49;28.50;26.70
48515;DHT22;34309;47.260;2.796;2022-08-04T04:52:35;28.50;26.70
48515;DHT22;34309;47.260;2.796;2022-08-04T04:55:25;28.50;26.70
48515;DHT22;34309;47.260;2.796;2022-08-04T04:57:52;28.50;26.60
48515;DHT22;34309;47.260;2.796;2022-08-04T05:00:25;28.50;26.70
48515;DHT22;34309;47.260;2.796;2022-08-04T05:13:31;28.50;26.80
48515;DHT22;34309;47.260;2.796;2022-08-04T05:16:06;28.40;26.70
48515;DHT22;34309;47.260;2.796;2022-08-04T05:18:37;28.40;26.80
48515;DHT22;34309;47.260;2.796;2022-08-04T05:21:23;28.40;26.80
48515;DHT22;34309;47.260;2.796;2022-08-04T05:23:55;28.40;26.80
48515;DHT22;34309;47.260;2.796;2022-08-04T05:26:29;28.40;26.80
48515;DHT22;34309;47.260;2.796;2022-08-04T05:28:57;28.40;26.70
48515;DHT22;34309;47.260;2.796;2022-08-04T05:31:27;28.40;26.80
48515;DHT22;34309;47.260;2.796;2022-08-04T05:33:59;28.40;26.80
48515;DHT22;34309;47.260;2.796;2022-08-04T05:36:36;28.40;26.70
48515;DHT22;34309;47.260;2.796;2022-08-04T05:39:06;28.40;26.70
48515;DHT22;34309;47.260;2.796;2022-08-04T05:41:33;28.40;26.80
48515;DHT22;34309;47.260;2.796;2022-08-04T05:44:00;28.40;26.80
48515;DHT22;34309;47.260;2.796;2022-08-04T05:46:28;28.40;26.80
48515;DHT22;34309;47.260;2.796;2022-08-04T05:48:55;28.40;26.80
48515;DHT22;34309;47.260;2.796;2022-08-04T05:51:21;28.40;26.80
48515;DHT22;34309;47.260;2.796;2022-08-04T05:53:48;28.40;26.80
48515;DHT22;34309;47.260;2.796;2022-08-04T05:56:15;28.40;27.00
48515;DHT22;34309;47.260;2.796;2022-08-04T05:58:43;28.40;26.90
48515;DHT22;34309;47.260;2.796;2022-08-04T06:01:11;28.40;26.90
48515;DHT22;34309;47.260;2.796;2022-08-04T06:03:38;28.40;27.00
48515;DHT22;34309;47.260;2.796;2022-08-04T06:06:06;28.40;27.00
48515;DHT22;34309;47.260;2.796;2022-08-04T06:08:33;28.40;26.90
48515;DHT22;34309;47.260;2.796;2022-08-04T06:11:04;28.40;27.10
48515;DHT22;34309;47.260;2.796;2022-08-04T06:13:43;28.40;26.90
48515;DHT22;34309;47.260;2.796;2022-08-04T06:16:13;28.40;27.00
48515;DHT22;34309;47.260;2.796;2022-08-04T06:18:42;28.40;27.00
48515;DHT22;34309;47.260;2.796;2022-08-04T06:21:10;28.40;26.90
48515;DHT22;34309;47.260;2.796;2022-08-04T06:23:38;28.40;26.90
48515;DHT22;34309;47.260;2.796;2022-08-04T06:26:08;28.40;26.80
48515;DHT22;34309;47.260;2.796;2022-08-04T06:28:35;28.40;26.90
48515;DHT22;34309;47.260;2.796;2022-08-04T06:31:02;28.40;26.90
48515;DHT22;34309;47.260;2.796;2022-08-04T06:33:30;28.40;26.90
48515;DHT22;34309;47.260;2.796;2022-08-04T06:36:04;28.40;26.90
48515;DHT22;34309;47.260;2.796;2022-08-04T06:38:32;28.40;26.90
48515;DHT22;34309;47.260;2.796;2022-08-04T06:41:00;28.40;26.90
48515;DHT22;34309;47.260;2.796;2022-08-04T06:43:28;28.40;26.90
48515;DHT22;34309;47.260;2.796;2022-08-04T06:45:58;28.40;26.90
48515;DHT22;34309;47.260;2.796;2022-08-04T06:48:26;28.40;26.90
48515;DHT22;34309;47.260;2.796;2022-08-04T06:50:53;28.40;27.40
48515;DHT22;34309;47.260;2.796;2022-08-04T06:53:20;28.40;26.80
48515;DHT22;34309;47.260;2.796;2022-08-04T06:55:46;28.40;26.80
48515;DHT22;34309;47.260;2.796;2022-08-04T06:58:14;28.40;26.80
48515;DHT22;34309;47.260;2.796;2022-08-04T07:00:42;28.40;26.80
48515;DHT22;34309;47.260;2.796;2022-08-04T07:03:09;28.40;26.80
48515;DHT22;34309;47.260;2.796;2022-08-04T07:05:36;28.40;26.80
48515;DHT22;34309;47.260;2.796;2022-08-04T07:08:02;28.40;26.80
48515;DHT22;34309;47.260;2.796;2022-08-04T07:10:29;28.40;26.90
48515;DHT22;34309;47.260;2.796;2022-08-04T07:12:56;28.40;27.50
48515;DHT22;34309;47.260;2.796;2022-08-04T07:15:23;28.40;27.00
48515;DHT22;34309;47.260;2.796;2022-08-04T07:17:50;28.40;27.00
48515;DHT22;34309;47.260;2.796;2022-08-04T07:20:16;28.40;26.90
48515;DHT22;34309;47.260;2.796;2022-08-04T07:22:44;28.40;27.00
48515;DHT22;34309;47.260;2.796;2022-08-04T07:25:10;28.40;27.00
48515;DHT22;34309;47.260;2.796;2022-08-04T07:27:37;28.40;27.10
48515;DHT22;34309;47.260;2.796;2022-08-04T07:30:06;28.40;27.10
48515;DHT22;34309;47.260;2.796;2022-08-04T07:32:32;28.40;26.90
48515;DHT22;34309;47.260;2.796;2022-08-04T07:34:59;28.40;27.00
48515;DHT22;34309;47.260;2.796;2022-08-04T07:37:26;28.40;27.10
48515;DHT22;34309;47.260;2.796;2022-08-04T07:39:51;28.40;27.20
48515;DHT22;34309;47.260;2.796;2022-08-04T07:42:18;28.40;27.20
48515;DHT22;34309;47.260;2.796;2022-08-04T07:44:45;28.40;27.40
48515;DHT22;34309;47.260;2.796;2022-08-04T07:47:11;28.40;27.40
48515;DHT22;34309;47.260;2.796;2022-08-04T07:49:38;28.40;27.50
48515;DHT22;34309;47.260;2.796;2022-08-04T07:52:05;28.40;27.50
48515;DHT22;34309;47.260;2.796;2022-08-04T07:54:32;28.40;27.50
48515;DHT22;34309;47.260;2.796;2022-08-04T07:56:58;28.40;27.50
48515;DHT22;34309;47.260;2.796;2022-08-04T07:59:24;28.40;27.50
48515;DHT22;34309;47.260;2.796;2022-08-04T08:01:50;28.40;27.50
48515;DHT22;34309;47.260;2.796;2022-08-04T08:04:18;28.40;27.40
48515;DHT22;34309;47.260;2.796;2022-08-04T08:06:44;28.40;27.40
48515;DHT22;34309;47.260;2.796;2022-08-04T08:09:17;28.40;27.50
48515;DHT22;34309;47.260;2.796;2022-08-04T08:11:45;28.40;27.50
48515;DHT22;34309;47.260;2.796;2022-08-04T08:14:18;28.40;27.60
48515;DHT22;34309;47.260;2.796;2022-08-04T08:16:44;28.40;27.50
48515;DHT22;34309;47.260;2.796;2022-08-04T08:19:11;28.40;27.60
48515;DHT22;34309;47.260;2.796;2022-08-04T08:21:37;28.40;27.80
48515;DHT22;34309;47.260;2.796;2022-08-04T08:24:04;28.40;27.70
48515;DHT22;34309;47.260;2.796;2022-08-04T08:26:29;28.40;27.70
48515;DHT22;34309;47.260;2.796;2022-08-04T08:28:55;28.40;27.80
48515;DHT22;34309;47.260;2.796;2022-08-04T08:31:21;28.40;27.80
48515;DHT22;34309;47.260;2.796;2022-08-04T08:33:49;28.40;27.80
48515;DHT22;34309;47.260;2.796;2022-08-04T08:39:40;28.40;27.90
48515;DHT22;34309;47.260;2.796;2022-08-04T08:47:40;28.40;28.00
48515;DHT22;34309;47.260;2.796;2022-08-04T08:58:39;28.50;28.50
48515;DHT22;34309;47.260;2.796;2022-08-04T09:10:01;28.50;28.80
48515;DHT22;34309;47.260;2.796;2022-08-04T09:12:39;28.50;28.80
48515;DHT22;34309;47.260;2.796;2022-08-04T09:15:43;28.50;28.80
48515;DHT22;34309;47.260;2.796;2022-08-04T09:18:33;28.50;28.90
48515;DHT22;34309;47.260;2.796;2022-08-04T09:29:26;28.50;28.90
48515;DHT22;34309;47.260;2.796;2022-08-04T09:47:59;28.60;28.70
48515;DHT22;34309;47.260;2.796;2022-08-04T09:50:37;28.50;28.60
48515;DHT22;34309;47.260;2.796;2022-08-04T09:56:11;28.60;28.60
48515;DHT22;34309;47.260;2.796;2022-08-04T09:59:00;28.60;28.80
48515;DHT22;34309;47.260;2.796;2022-08-04T10:01:32;28.60;28.40
48515;DHT22;34309;47.260;2.796;2022-08-04T10:04:00;28.60;28.50
48515;DHT22;34309;47.260;2.796;2022-08-04T10:15:39;28.60;28.50
48515;DHT22;34309;47.260;2.796;2022-08-04T10:21:07;28.60;28.50
48515;DHT22;34309;47.260;2.796;2022-08-04T10:26:51;28.60;28.40
48515;DHT22;34309;47.260;2.796;2022-08-04T10:29:28;28.60;28.40
48515;DHT22;34309;47.260;2.796;2022-08-04T10:35:09;28.60;28.40
48515;DHT22;34309;47.260;2.796;2022-08-04T10:40:55;28.70;28.50
48515;DHT22;34309;47.260;2.796;2022-08-04T10:46:15;28.70;28.50
48515;DHT22;34309;47.260;2.796;2022-08-04T10:48:59;28.70;28.50
48515;DHT22;34309;47.260;2.796;2022-08-04T10:51:45;28.70;28.40
48515;DHT22;34309;47.260;2.796;2022-08-04T10:54:16;28.70;28.40
48515;DHT22;34309;47.260;2.796;2022-08-04T10:56:49;28.70;28.40
48515;DHT22;34309;47.260;2.796;2022-08-04T10:59:20;28.70;28.40
48515;DHT22;34309;47.260;2.796;2022-08-04T11:01:51;28.70;28.50
48515;DHT22;34309;47.260;2.796;2022-08-04T11:06:58;28.70;28.40
48515;DHT22;34309;47.260;2.796;2022-08-04T11:09:25;28.70;28.50
48515;DHT22;34309;47.260;2.796;2022-08-04T11:12:18;28.70;28.30
48515;DHT22;34309;47.260;2.796;2022-08-04T11:14:58;28.70;28.40
48515;DHT22;34309;47.260;2.796;2022-08-04T11:17:31;28.80;28.40
48515;DHT22;34309;47.260;2.796;2022-08-04T11:20:15;28.70;28.20
48515;DHT22;34309;47.260;2.796;2022-08-04T11:22:54;28.80;28.40
48515;DHT22;34309;47.260;2.796;2022-08-04T11:25:25;28.80;28.50
48515;DHT22;34309;47.260;2.796;2022-08-04T11:44:31;28.80;28.40
48515;DHT22;34309;47.260;2.796;2022-08-04T11:47:08;28.80;28.40
48515;DHT22;34309;47.260;2.796;2022-08-04T11:50:11;28.80;28.40
48515;DHT22;34309;47.260;2.796;2022-08-04T11:52:40;28.80;28.20
48515;DHT22;34309;47.260;2.796;2022-08-04T11:55:09;28.80;28.30
48515;DHT22;34309;47.260;2.796;2022-08-04T11:57:36;28.80;28.20
48515;DHT22;34309;47.260;2.796;2022-08-04T12:00:14;28.80;28.40
48515;DHT22;34309;47.260;2.796;2022-08-04T12:05:40;28.90;28.40
48515;DHT22;34309;47.260;2.796;2022-08-04T12:14:03;28.90;28.40
48515;DHT22;34309;47.260;2.796;2022-08-04T12:16:47;28.90;28.30
48515;DHT22;34309;47.260;2.796;2022-08-04T12:19:22;28.90;28.30
48515;DHT22;34309;47.260;2.796;2022-08-04T12:21:53;28.90;28.30
48515;DHT22;34309;47.260;2.796;2022-08-04T12:24:27;28.90;28.20
48515;DHT22;34309;47.260;2.796;2022-08-04T12:26:58;28.90;28.40
48515;DHT22;34309;47.260;2.796;2022-08-04T12:29:31;28.90;28.30
48515;DHT22;34309;47.260;2.796;2022-08-04T12:32:01;28.90;28.30
48515;DHT22;34309;47.260;2.796;2022-08-04T12:34:38;28.90;28.20
48515;DHT22;34309;47.260;2.796;2022-08-04T12:40:13;28.90;28.10
48515;DHT22;34309;47.260;2.796;2022-08-04T12:42:52;28.90;28.20
48515;DHT22;34309;47.260;2.796;2022-08-04T12:45:23;28.90;28.10
48515;DHT22;34309;47.260;2.796;2022-08-04T12:47:52;28.90;28.10
48515;DHT22;34309;47.260;2.796;2022-08-04T12:50:19;28.90;28.10
48515;DHT22;34309;47.260;2.796;2022-08-04T12:52:50;29.00;28.10
48515;DHT22;34309;47.260;2.796;2022-08-04T12:55:19;29.00;28.10
48515;DHT22;34309;47.260;2.796;2022-08-04T12:57:47;29.00;28.10
48515;DHT22;34309;47.260;2.796;2022-08-04T13:00:34;29.00;28.20
48515;DHT22;34309;47.260;2.796;2022-08-04T13:03:10;29.00;28.10
48515;DHT22;34309;47.260;2.796;2022-08-04T13:05:38;29.00;28.00
48515;DHT22;34309;47.260;2.796;2022-08-04T13:08:05;29.00;28.10
48515;DHT22;34309;47.260;2.796;2022-08-04T13:10:40;29.00;28.10
48515;DHT22;34309;47.260;2.796;2022-08-04T13:13:15;29.00;28.00
48515;DHT22;34309;47.260;2.796;2022-08-04T13:15:42;29.00;27.90
48515;DHT22;34309;47.260;2.796;2022-08-04T13:18:09;29.00;27.80
48515;DHT22;34309;47.260;2.796;2022-08-04T13:20:37;29.00;27.80
48515;DHT22;34309;47.260;2.796;2022-08-04T13:23:14;29.10;27.70
48515;DHT22;34309;47.260;2.796;2022-08-04T13:25:42;29.10;27.70
48515;DHT22;34309;47.260;2.796;2022-08-04T13:28:24;29.10;27.70
48515;DHT22;34309;47.260;2.796;2022-08-04T13:30:56;29.10;27.60
48515;DHT22;34309;47.260;2.796;2022-08-04T13:33:28;29.10;27.70
48515;DHT22;34309;47.260;2.796;2022-08-04T13:35:56;29.00;27.40
48515;DHT22;34309;47.260;2.796;2022-08-04T13:38:25;29.10;27.40
48515;DHT22;34309;47.260;2.796;2022-08-04T13:40:51;29.10;27.50
48515;DHT22;34309;47.260;2.796;2022-08-04T13:43:28;29.10;27.40
48515;DHT22;34309;47.260;2.796;2022-08-04T13:46:03;29.10;27.40
48515;DHT22;34309;47.260;2.796;2022-08-04T13:48:35;29.10;27.40
48515;DHT22;34309;47.260;2.796;2022-08-04T13:51:07;29.10;27.50
48515;DHT22;34309;47.260;2.796;2022-08-04T13:53:35;29.10;27.50
48515;DHT22;34309;47.260;2.796;2022-08-04T13:56:04;29.20;27.50
48515;DHT22;34309;47.260;2.796;2022-08-04T13:58:34;29.20;27.50
48515;DHT22;34309;47.260;2.796;2022-08-04T14:01:06;29.20;27.50
48515;DHT22;34309;47.260;2.796;2022-08-04T14:03:50;29.10;27.40
48515;DHT22;34309;47.260;2.796;2022-08-04T14:06:24;29.20;27.50
48515;DHT22;34309;47.260;2.796;2022-08-04T14:11:41;29.20;27.50
48515;DHT22;34309;47.260;2.796;2022-08-04T14:17:07;29.20;27.40
48515;DHT22;34309;47.260;2.796;2022-08-04T14:25:17;29.20;27.60
48515;DHT22;34309;47.260;2.796;2022-08-04T14:27:51;29.30;27.60
48515;DHT22;34309;47.260;2.796;2022-08-04T14:30:33;29.30;27.60
48515;DHT22;34309;47.260;2.796;2022-08-04T14:35:29;29.30;27.50
48515;DHT22;34309;47.260;2.796;2022-08-04T14:38:02;29.30;27.60
48515;DHT22;34309;47.260;2.796;2022-08-04T14:40:33;29.30;27.50
48515;DHT22;34309;47.260;2.796;2022-08-04T14:42:59;29.30;27.50
48515;DHT22;34309;47.260;2.796;2022-08-04T14:45:45;29.30;27.60
48515;DHT22;34309;47.260;2.796;2022-08-04T14:48:15;29.30;27.70
48515;DHT22;34309;47.260;2.796;2022-08-04T14:50:45;29.30;27.60
48515;DHT22;34309;47.260;2.796;2022-08-04T14:53:15;29.30;27.50
48515;DHT22;34309;47.260;2.796;2022-08-04T14:55:49;29.30;27.50
48515;DHT22;34309;47.260;2.796;2022-08-04T14:58:31;29.40;27.60
48515;DHT22;34309;47.260;2.796;2022-08-04T15:01:00;29.40;27.70
48515;DHT22;34309;47.260;2.796;2022-08-04T15:03:27;29.40;27.50
48515;DHT22;34309;47.260;2.796;2022-08-04T15:05:54;29.40;27.80
48515;DHT22;34309;47.260;2.796;2022-08-04T15:08:21;29.40;27.60
48515;DHT22;34309;47.260;2.796;2022-08-04T15:10:46;29.40;27.60
48515;DHT22;34309;47.260;2.796;2022-08-04T15:13:13;29.40;27.70
48515;DHT22;34309;47.260;2.796;2022-08-04T15:15:41;29.40;27.70
48515;DHT22;34309;47.260;2.796;2022-08-04T15:18:11;29.40;27.70
48515;DHT22;34309;47.260;2.796;2022-08-04T15:20:38;29.40;27.70
48515;DHT22;34309;47.260;2.796;2022-08-04T15:23:06;29.40;27.70
48515;DHT22;34309;47.260;2.796;2022-08-04T15:25:43;29.40;27.80
48515;DHT22;34309;47.260;2.796;2022-08-04T15:28:12;29.40;27.90
48515;DHT22;34309;47.260;2.796;2022-08-04T15:30:39;29.40;28.00
48515;DHT22;34309;47.260;2.796;2022-08-04T15:33:06;29.50;28.00
48515;DHT22;34309;47.260;2.796;2022-08-04T15:35:33;29.50;28.00
48515;DHT22;34309;47.260;2.796;2022-08-04T15:38:07;29.50;28.00
48515;DHT22;34309;47.260;2.796;2022-08-04T15:40:47;29.50;27.90
48515;DHT22;34309;47.260;2.796;2022-08-04T15:43:26;29.50;28.10
48515;DHT22;34309;47.260;2.796;2022-08-04T15:45:54;29.50;28.10
48515;DHT22;34309;47.260;2.796;2022-08-04T15:48:23;29.50;28.00
48515;DHT22;34309;47.260;2.796;2022-08-04T15:53:28;29.50;28.10
48515;DHT22;34309;47.260;2.796;2022-08-04T15:55:54;29.50;28.20
48515;DHT22;34309;47.260;2.796;2022-08-04T15:58:21;29.50;28.20
48515;DHT22;34309;47.260;2.796;2022-08-04T16:06:39;29.50;28.10
48515;DHT22;34309;47.260;2.796;2022-08-04T16:16:29;29.60;28.40
48515;DHT22;34309;47.260;2.796;2022-08-04T16:19:06;29.60;28.40
48515;DHT22;34309;47.260;2.796;2022-08-04T16:21:56;29.60;28.50
48515;DHT22;34309;47.260;2.796;2022-08-04T16:24:36;29.60;28.50
48515;DHT22;34309;47.260;2.796;2022-08-04T16:27:07;29.60;28.60
48515;DHT22;34309;47.260;2.796;2022-08-04T16:32:22;29.60;28.60
48515;DHT22;34309;47.260;2.796;2022-08-04T16:35:03;29.70;28.60
48515;DHT22;34309;47.260;2.796;2022-08-04T16:43:01;29.70;28.70
48515;DHT22;34309;47.260;2.796;2022-08-04T16:48:10;29.70;28.70
48515;DHT22;34309;47.260;2.796;2022-08-04T16:50:55;29.70;28.50
48515;DHT22;34309;47.260;2.796;2022-08-04T16:53:24;29.70;28.60
48515;DHT22;34309;47.260;2.796;2022-08-04T16:55:52;29.70;28.60
48515;DHT22;34309;47.260;2.796;2022-08-04T16:58:25;29.70;28.70
48515;DHT22;34309;47.260;2.796;2022-08-04T17:00:51;29.70;28.60
48515;DHT22;34309;47.260;2.796;2022-08-04T17:03:17;29.70;28.60
48515;DHT22;34309;47.260;2.796;2022-08-04T17:05:43;29.70;28.70
48515;DHT22;34309;47.260;2.796;2022-08-04T17:08:10;29.70;28.70
48515;DHT22;34309;47.260;2.796;2022-08-04T17:10:44;29.70;28.80
48515;DHT22;34309;47.260;2.796;2022-08-04T17:13:20;29.70;28.90
48515;DHT22;34309;47.260;2.796;2022-08-04T17:15:49;29.70;28.90
48515;DHT22;34309;47.260;2.796;2022-08-04T17:18:26;29.70;28.90
48515;DHT22;34309;47.260;2.796;2022-08-04T17:20:55;29.70;28.80
48515;DHT22;34309;47.260;2.796;2022-08-04T17:23:24;29.80;29.40
48515;DHT22;34309;47.260;2.796;2022-08-04T17:25:52;29.70;29.50
48515;DHT22;34309;47.260;2.796;2022-08-04T17:28:19;29.80;29.00
48515;DHT22;34309;47.260;2.796;2022-08-04T17:30:45;29.80;29.00
48515;DHT22;34309;47.260;2.796;2022-08-04T17:33:17;29.80;28.90
48515;DHT22;34309;47.260;2.796;2022-08-04T17:35:44;29.80;28.90
48515;DHT22;34309;47.260;2.796;2022-08-04T17:38:11;29.80;29.10
48515;DHT22;34309;47.260;2.796;2022-08-04T17:41:08;29.80;29.10
48515;DHT22;34309;47.260;2.796;2022-08-04T17:43:40;29.80;29.20
48515;DHT22;34309;47.260;2.796;2022-08-04T17:49:05;29.80;29.10
48515;DHT22;34309;47.260;2.796;2022-08-04T17:54:04;29.80;29.20
48515;DHT22;34309;47.260;2.796;2022-08-04T17:56:33;29.80;29.00
48515;DHT22;34309;47.260;2.796;2022-08-04T18:00:19;29.80;29.10
48515;DHT22;34309;47.260;2.796;2022-08-04T18:02:22;29.80;29.00
48515;DHT22;34309;47.260;2.796;2022-08-04T18:04:50;29.80;29.00
48515;DHT22;34309;47.260;2.796;2022-08-04T18:07:19;29.80;29.10
48515;DHT22;34309;47.260;2.796;2022-08-04T18:14:53;29.80;29.00
48515;DHT22;34309;47.260;2.796;2022-08-04T18:20:00;29.80;29.10
48515;DHT22;34309;47.260;2.796;2022-08-04T18:22:27;29.80;29.00
48515;DHT22;34309;47.260;2.796;2022-08-04T18:24:53;29.80;29.10
48515;DHT22;34309;47.260;2.796;2022-08-04T18:27:22;29.80;29.10
48515;DHT22;34309;47.260;2.796;2022-08-04T18:29:48;29.80;29.00
48515;DHT22;34309;47.260;2.796;2022-08-04T18:32:14;29.80;29.00
48515;DHT22;34309;47.260;2.796;2022-08-04T18:34:40;29.80;29.10
48515;DHT22;34309;47.260;2.796;2022-08-04T18:37:06;29.80;29.10
48515;DHT22;34309;47.260;2.796;2022-08-04T18:39:32;29.80;29.10
48515;DHT22;34309;47.260;2.796;2022-08-04T18:41:59;29.80;29.20
48515;DHT22;34309;47.260;2.796;2022-08-04T18:44:25;29.80;29.30
48515;DHT22;34309;47.260;2.796;2022-08-04T18:46:54;29.80;29.20
48515;DHT22;34309;47.260;2.796;2022-08-04T18:49:20;29.90;29.20
48515;DHT22;34309;47.260;2.796;2022-08-04T18:51:50;29.90;29.30
48515;DHT22;34309;47.260;2.796;2022-08-04T18:54:15;29.80;29.20
48515;DHT22;34309;47.260;2.796;2022-08-04T18:56:41;29.80;29.40
48515;DHT22;34309;47.260;2.796;2022-08-04T18:59:07;29.80;29.30
48515;DHT22;34309;47.260;2.796;2022-08-04T19:01:33;29.90;29.60
48515;DHT22;34309;47.260;2.796;2022-08-04T19:03:59;29.90;29.50
48515;DHT22;34309;47.260;2.796;2022-08-04T19:06:27;29.90;29.50
48515;DHT22;34309;47.260;2.796;2022-08-04T19:08:53;29.90;29.60
48515;DHT22;34309;47.260;2.796;2022-08-04T19:11:19;29.90;29.50
48515;DHT22;34309;47.260;2.796;2022-08-04T19:13:44;29.90;29.60
48515;DHT22;34309;47.260;2.796;2022-08-04T19:16:11;29.90;29.60
48515;DHT22;34309;47.260;2.796;2022-08-04T19:18:37;29.90;29.70
48515;DHT22;34309;47.260;2.796;2022-08-04T19:21:03;29.90;29.60
48515;DHT22;34309;47.260;2.796;2022-08-04T19:23:29;29.90;29.50
48515;DHT22;34309;47.260;2.796;2022-08-04T19:25:57;29.90;29.60
48515;DHT22;34309;47.260;2.796;2022-08-04T19:28:26;29.90;29.60
48515;DHT22;34309;47.260;2.796;2022-08-04T19:30:52;29.90;29.60
48515;DHT22;34309;47.260;2.796;2022-08-04T19:33:19;29.90;29.60
48515;DHT22;34309;47.260;2.796;2022-08-04T19:35:45;29.90;29.50
48515;DHT22;34309;47.260;2.796;2022-08-04T19:38:11;29.90;29.50
48515;DHT22;34309;47.260;2.796;2022-08-04T19:40:38;29.90;29.50
48515;DHT22;34309;47.260;2.796;2022-08-04T19:43:10;29.90;29.30
48515;DHT22;34309;47.260;2.796;2022-08-04T19:45:38;29.90;29.30
48515;DHT22;34309;47.260;2.796;2022-08-04T19:48:04;29.90;29.20
48515;DHT22;34309;47.260;2.796;2022-08-04T19:50:31;29.90;29.30
48515;DHT22;34309;47.260;2.796;2022-08-04T19:52:57;29.90;29.20
48515;DHT22;34309;47.260;2.796;2022-08-04T19:55:24;29.90;29.30
48515;DHT22;34309;47.260;2.796;2022-08-04T19:57:50;29.90;29.30
48515;DHT22;34309;47.260;2.796;2022-08-04T20:00:18;29.90;29.30
48515;DHT22;34309;47.260;2.796;2022-08-04T20:02:44;29.90;29.40
48515;DHT22;34309;47.260;2.796;2022-08-04T20:05:11;29.90;29.30
48515;DHT22;34309;47.260;2.796;2022-08-04T20:07:37;29.90;29.40
48515;DHT22;34309;47.260;2.796;2022-08-04T20:10:05;29.90;29.40
48515;DHT22;34309;47.260;2.796;2022-08-04T20:12:32;29.90;29.50
48515;DHT22;34309;47.260;2.796;2022-08-04T20:14:58;29.90;29.40
48515;DHT22;34309;47.260;2.796;2022-08-04T20:17:24;29.90;29.30
48515;DHT22;34309;47.260;2.796;2022-08-04T20:19:50;29.90;29.30
48515;DHT22;34309;47.260;2.796;2022-08-04T20:22:16;29.90;29.30
48515;DHT22;34309;47.260;2.796;2022-08-04T20:24:45;29.90;29.30
48515;DHT22;34309;47.260;2.796;2022-08-04T20:27:12;29.90;29.40
48515;DHT22;34309;47.260;2.796;2022-08-04T20:29:38;29.90;29.30
48515;DHT22;34309;47.260;2.796;2022-08-04T20:32:04;29.90;29.20
48515;DHT22;34309;47.260;2.796;2022-08-04T20:34:30;29.90;29.20
48515;DHT22;34309;47.260;2.796;2022-08-04T20:36:55;29.90;29.30
48515;DHT22;34309;47.260;2.796;2022-08-04T20:39:21;29.90;29.20
48515;DHT22;34309;47.260;2.796;2022-08-04T20:41:48;29.90;29.30
48515;DHT22;34309;47.260;2.796;2022-08-04T20:44:14;29.90;29.20